createdAt,value
2019-04-30T00:02:34.616Z,93.40
2019-04-30T00:07:31.990Z,93.40
2019-04-30T00:12:35.985Z,93.50
2019-04-30T00:17:37.394Z,93.50
2019-04-30T00:22:46.547Z,93.60
2019-04-30T00:27:42.950Z,93.60
2019-04-30T00:32:46.895Z,93.70
2019-04-30T00:37:52.003Z,93.80
2019-04-30T00:43:00.159Z,93.80
2019-04-30T00:48:00.501Z,93.80
2019-04-30T00:53:05.847Z,93.80
2019-04-30T00:58:08.986Z,93.90
2019-04-30T01:03:18.295Z,93.90
2019-04-30T01:08:21.205Z,93.90
2019-04-30T01:13:23.733Z,94.00
2019-04-30T01:18:30.599Z,94.00
2019-04-30T01:23:29.657Z,94.10
2019-04-30T01:28:31.697Z,94.10
2019-04-30T01:33:34.684Z,93.90
2019-04-30T01:38:40.025Z,93.70
2019-04-30T01:43:41.032Z,93.50
2019-04-30T01:48:50.543Z,93.30
2019-04-30T01:53:48.492Z,93.20
2019-04-30T01:58:59.509Z,93.00
2019-04-30T02:04:03.648Z,92.90
2019-04-30T02:09:25.253Z,92.90
2019-04-30T02:14:28.741Z,92.80
2019-04-30T02:19:31.231Z,92.80
2019-04-30T02:24:32.929Z,92.80
2019-04-30T02:29:34.453Z,92.80
2019-04-30T02:34:41.169Z,93.10
2019-04-30T02:39:41.705Z,92.70
2019-04-30T02:44:44.943Z,92.60
2019-04-30T02:49:52.934Z,92.60
2019-04-30T02:54:55.016Z,92.60
2019-04-30T03:00:13.458Z,92.70
2019-04-30T03:05:16.650Z,92.60
2019-04-30T03:10:19.789Z,92.60
2019-04-30T03:15:24.495Z,92.60
2019-04-30T03:20:35.736Z,92.60
2019-04-30T03:25:32.259Z,92.60
2019-04-30T03:30:35.011Z,92.70
2019-04-30T03:35:36.580Z,92.80
2019-04-30T03:40:40.451Z,92.80
2019-04-30T03:45:41.180Z,92.90
2019-04-30T03:50:53.241Z,93.10
2019-04-30T03:55:45.671Z,93.20
2019-04-30T04:01:09.917Z,93.20
2019-04-30T04:06:21.255Z,93.30
2019-04-30T04:11:23.718Z,93.30
2019-04-30T04:16:25.014Z,93.40
2019-04-30T04:21:26.324Z,93.40
2019-04-30T04:26:29.822Z,93.40
2019-04-30T04:31:31.426Z,93.40
2019-04-30T04:36:33.173Z,93.80
2019-04-30T04:41:35.618Z,93.50
2019-04-30T04:46:36.905Z,93.60
2019-04-30T04:51:42.025Z,93.70
2019-04-30T04:56:41.509Z,93.70
2019-04-30T05:01:42.799Z,93.80
2019-04-30T05:06:45.028Z,93.80
2019-04-30T05:11:46.409Z,94.00
2019-04-30T05:16:48.842Z,94.00
2019-04-30T05:21:51.764Z,94.10
2019-04-30T05:26:56.400Z,94.10
2019-04-30T05:31:58.537Z,94.10
2019-04-30T05:37:00.998Z,94.00
2019-04-30T05:42:04.687Z,94.00
2019-04-30T05:47:06.001Z,94.10
2019-04-30T05:52:09.448Z,94.10
2019-04-30T05:57:11.263Z,94.10
2019-04-30T06:02:12.823Z,94.20
2019-04-30T06:07:14.337Z,94.20
2019-04-30T06:12:28.452Z,94.30
2019-04-30T06:17:32.742Z,94.40
2019-04-30T06:22:34.238Z,94.40
2019-04-30T06:27:38.701Z,94.40
2019-04-30T06:32:41.021Z,94.30
2019-04-30T06:37:42.340Z,94.20
2019-04-30T06:42:43.977Z,94.00
2019-04-30T06:47:46.294Z,93.90
2019-04-30T06:52:56.221Z,93.70
2019-04-30T06:57:51.101Z,93.50
2019-04-30T07:02:53.101Z,93.00
2019-04-30T07:08:09.096Z,92.40
2019-04-30T07:13:08.789Z,92.00
2019-04-30T07:18:10.483Z,91.50
2019-04-30T07:23:11.778Z,90.90
2019-04-30T07:28:13.584Z,90.60
2019-04-30T07:33:14.933Z,90.10
2019-04-30T07:38:16.255Z,89.60
2019-04-30T07:43:18.970Z,89.10
2019-04-30T07:48:25.958Z,88.80
2019-04-30T07:53:25.220Z,87.90
2019-04-30T07:58:29.438Z,87.30
2019-04-30T08:03:49.992Z,86.50
2019-04-30T08:08:57.198Z,86.30
2019-04-30T08:13:55.118Z,86.10
2019-04-30T08:18:59.209Z,86.50
2019-04-30T08:24:01.103Z,85.90
2019-04-30T08:29:03.196Z,85.60
2019-04-30T08:34:10.649Z,85.80
2019-04-30T08:39:10.874Z,85.70
2019-04-30T08:44:20.672Z,85.80
2019-04-30T08:49:20.368Z,86.10
2019-04-30T08:54:22.058Z,86.40
2019-04-30T08:59:23.505Z,86.60
2019-04-30T09:04:29.102Z,86.90
2019-04-30T09:09:35.312Z,87.00
2019-04-30T09:14:40.427Z,87.10
2019-04-30T09:19:49.029Z,86.90
2019-04-30T09:24:51.114Z,87.00
2019-04-30T09:29:54.352Z,87.30
2019-04-30T09:34:55.643Z,87.50
2019-04-30T09:39:56.955Z,87.20
2019-04-30T09:44:59.649Z,87.00
2019-04-30T09:50:01.563Z,87.60
2019-04-30T09:55:04.457Z,88.30
2019-04-30T10:00:09.417Z,88.80
2019-04-30T10:05:13.709Z,89.20
2019-04-30T10:10:20.662Z,89.90
2019-04-30T10:15:36.437Z,89.60
2019-04-30T10:20:42.917Z,89.30
2019-04-30T10:25:48.481Z,89.00
2019-04-30T10:30:50.318Z,89.20
2019-04-30T10:35:53.538Z,89.30
2019-04-30T10:40:54.942Z,88.70
2019-04-30T10:45:58.484Z,87.40
2019-04-30T10:50:59.683Z,86.40
2019-04-30T10:56:01.231Z,85.50
2019-04-30T11:01:03.474Z,85.10
2019-04-30T11:06:04.947Z,85.30
2019-04-30T11:11:07.413Z,85.30
2019-04-30T11:16:14.018Z,85.30
2019-04-30T11:21:14.467Z,85.60
2019-04-30T11:26:16.755Z,85.60
2019-04-30T11:31:26.475Z,86.00
2019-04-30T11:36:30.506Z,86.10
2019-04-30T11:41:35.130Z,86.00
2019-04-30T11:47:06.741Z,86.50
2019-04-30T11:52:11.133Z,86.80
2019-04-30T11:57:13.487Z,87.20
2019-04-30T12:02:19.103Z,87.30
2019-04-30T12:07:32.111Z,87.40
2019-04-30T12:12:33.583Z,87.50
2019-04-30T12:17:53.494Z,87.80
2019-04-30T12:22:56.743Z,88.00
2019-04-30T12:27:59.603Z,88.20
2019-04-30T12:33:01.247Z,88.70
2019-04-30T12:38:02.781Z,88.80
2019-04-30T12:43:06.501Z,88.80
2019-04-30T12:48:09.852Z,88.60
2019-04-30T12:53:22.080Z,88.60
2019-04-30T12:58:23.499Z,88.80
2019-04-30T13:03:25.077Z,88.20
2019-04-30T13:08:30.420Z,88.20
2019-04-30T13:13:33.244Z,87.80
2019-04-30T13:18:37.051Z,87.30
2019-04-30T13:23:38.560Z,86.90
2019-04-30T13:28:59.804Z,86.80
2019-04-30T13:34:19.910Z,86.80
2019-04-30T13:39:23.393Z,86.30
2019-04-30T13:44:29.423Z,86.20
2019-04-30T13:49:51.247Z,85.90
2019-04-30T13:54:54.713Z,85.30
2019-04-30T13:59:58.524Z,84.80
2019-04-30T14:05:04.699Z,84.10
2019-04-30T14:10:09.870Z,84.10
2019-04-30T14:15:11.889Z,83.70
2019-04-30T14:20:15.465Z,83.50
2019-04-30T14:25:17.077Z,83.00
2019-04-30T14:30:19.214Z,83.10
2019-04-30T14:35:21.116Z,82.90
2019-04-30T14:40:24.427Z,82.30
2019-04-30T14:45:35.175Z,82.00
2019-04-30T14:50:39.442Z,82.30
2019-04-30T14:55:49.535Z,82.50
2019-04-30T15:00:53.949Z,82.50
2019-04-30T15:05:55.217Z,82.80
2019-04-30T15:10:57.109Z,83.00
2019-04-30T15:15:58.381Z,83.30
2019-04-30T15:20:59.977Z,83.40
2019-04-30T15:26:05.590Z,83.60
2019-04-30T15:31:09.906Z,84.00
2019-04-30T15:36:11.239Z,84.50
2019-04-30T15:41:12.673Z,85.30
2019-04-30T15:46:16.128Z,85.70
2019-04-30T15:51:17.630Z,86.20
2019-04-30T15:56:20.273Z,86.30
2019-04-30T16:01:21.834Z,86.50
2019-04-30T16:06:23.425Z,86.90
2019-04-30T16:11:29.713Z,87.10
2019-04-30T16:16:32.981Z,87.80
2019-04-30T16:21:34.348Z,87.30
2019-04-30T16:26:47.306Z,87.40
2019-04-30T16:31:41.277Z,87.50
2019-04-30T16:36:43.383Z,87.70
2019-04-30T16:41:44.842Z,87.60
2019-04-30T16:46:46.116Z,87.50
2019-04-30T16:51:47.710Z,87.20
2019-04-30T16:57:02.692Z,87.50
2019-04-30T17:01:57.654Z,87.40
2019-04-30T17:06:58.794Z,87.20
2019-04-30T17:12:14.030Z,87.30
2019-04-30T17:17:15.304Z,87.10
2019-04-30T17:22:16.605Z,87.00
2019-04-30T17:27:21.951Z,87.20
2019-04-30T17:37:43.350Z,86.90
2019-04-30T17:42:45.242Z,87.00
2019-04-30T17:47:46.743Z,86.40
2019-04-30T17:52:48.935Z,87.20
2019-04-30T17:57:50.582Z,86.70
2019-04-30T18:02:52.898Z,87.20
2019-04-30T18:07:54.230Z,87.70
2019-04-30T18:12:57.991Z,87.90
2019-04-30T18:18:01.318Z,88.10
2019-04-30T18:23:24.189Z,87.90
2019-04-30T18:28:26.166Z,88.00
2019-04-30T18:33:29.192Z,88.30
2019-04-30T18:38:31.506Z,88.70
2019-04-30T18:43:32.829Z,89.00
2019-04-30T18:48:34.454Z,89.10
2019-04-30T18:53:39.668Z,89.50
2019-04-30T18:58:43.213Z,90.00
2019-04-30T19:03:46.419Z,90.10
2019-04-30T19:08:55.533Z,90.30
2019-04-30T19:14:19.539Z,90.40
2019-04-30T19:19:23.336Z,90.40
2019-04-30T19:24:25.081Z,90.30
2019-04-30T19:29:26.648Z,90.30
2019-04-30T19:34:31.038Z,90.30
2019-04-30T19:39:32.513Z,90.20
2019-04-30T19:44:34.073Z,90.30
2019-04-30T19:49:36.624Z,90.30
2019-04-30T19:54:40.088Z,90.30
2019-04-30T19:59:41.821Z,90.40
2019-04-30T20:04:43.134Z,90.40
2019-04-30T20:09:44.412Z,90.50
2019-04-30T20:14:46.760Z,90.50
2019-04-30T20:19:48.921Z,90.50
2019-04-30T20:24:50.578Z,90.60
2019-04-30T20:29:51.905Z,90.40
2019-04-30T20:34:53.449Z,90.30
2019-04-30T20:40:00.960Z,90.30
2019-04-30T20:45:12.410Z,90.30
2019-04-30T20:50:13.895Z,90.30
2019-04-30T20:55:15.360Z,90.40
2019-04-30T21:00:17.141Z,90.40
2019-04-30T21:05:18.505Z,90.50
2019-04-30T21:10:20.870Z,90.50
2019-04-30T21:15:23.594Z,90.50
2019-04-30T21:20:24.935Z,90.40
2019-04-30T21:25:26.313Z,90.40
2019-04-30T21:30:27.731Z,90.30
2019-04-30T21:35:34.603Z,90.30
2019-04-30T21:40:36.748Z,90.30
2019-04-30T21:45:40.141Z,90.10
2019-04-30T21:50:41.422Z,89.40
2019-04-30T21:55:42.802Z,89.50
2019-04-30T22:01:04.902Z,89.50
2019-04-30T22:06:08.490Z,89.70
2019-04-30T22:11:10.159Z,89.80
2019-04-30T22:16:13.035Z,89.90
2019-04-30T22:21:14.843Z,90.00
2019-04-30T22:26:16.123Z,90.10
2019-04-30T22:31:19.566Z,90.10
2019-04-30T22:36:26.397Z,90.20
2019-04-30T22:41:29.804Z,90.20
2019-04-30T22:46:31.502Z,90.20
2019-04-30T22:51:32.894Z,90.20
2019-04-30T22:56:34.172Z,90.30
2019-04-30T23:01:43.282Z,90.40
2019-04-30T23:06:44.662Z,90.40
2019-04-30T23:11:45.964Z,90.50
2019-04-30T23:16:48.670Z,90.60
2019-04-30T23:21:49.959Z,90.60
2019-04-30T23:26:51.641Z,90.80
2019-04-30T23:31:53.003Z,90.80
2019-04-30T23:36:55.878Z,90.80
2019-04-30T23:41:57.150Z,90.90
2019-04-30T23:47:02.090Z,91.10
2019-04-30T23:52:03.396Z,91.10
2019-04-30T23:57:04.952Z,91.30
